createdAt,value
2018-03-31T00:01:28.800Z,66.00
2018-03-31T00:03:55.850Z,66.00
2018-03-31T00:06:22.955Z,66.10
2018-03-31T00:08:52.150Z,66.60
2018-03-31T00:11:19.254Z,66.60
2018-03-31T00:13:46.273Z,66.70
2018-03-31T00:16:15.555Z,66.80
2018-03-31T00:18:42.584Z,66.80
2018-03-31T00:21:09.622Z,66.80
2018-03-31T00:23:36.655Z,67.40
2018-03-31T00:26:03.682Z,67.00
2018-03-31T00:28:30.702Z,67.00
2018-03-31T00:30:57.749Z,67.20
2018-03-31T00:33:24.791Z,67.50
2018-03-31T00:35:51.863Z,68.30
2018-03-31T00:38:18.862Z,68.00
2018-03-31T00:40:45.839Z,68.20
2018-03-31T00:43:12.819Z,68.50
2018-03-31T00:45:43.306Z,69.70
2018-03-31T00:48:11.459Z,68.80
2018-03-31T00:50:38.478Z,69.10
2018-03-31T00:53:09.484Z,69.80
2018-03-31T00:55:37.598Z,69.80
2018-03-31T00:58:04.615Z,69.80
2018-03-31T01:00:32.741Z,70.10
2018-03-31T01:02:59.728Z,70.10
2018-03-31T01:05:39.644Z,70.20
2018-03-31T01:08:06.710Z,70.50
2018-03-31T01:10:33.690Z,70.30
2018-03-31T01:13:01.444Z,70.60
2018-03-31T01:15:28.513Z,69.80
2018-03-31T01:17:55.543Z,70.10
2018-03-31T01:20:22.571Z,70.40
2018-03-31T01:22:49.724Z,70.50
2018-03-31T01:25:17.540Z,71.00
2018-03-31T01:27:44.617Z,70.90
2018-03-31T01:30:16.171Z,70.90
2018-03-31T01:32:43.211Z,71.40
2018-03-31T01:35:11.346Z,71.50
2018-03-31T01:37:38.353Z,71.60
2018-03-31T01:40:05.617Z,71.80
2018-03-31T01:42:32.658Z,72.20
2018-03-31T01:44:59.671Z,72.20
2018-03-31T01:47:37.526Z,72.20
2018-03-31T01:50:05.277Z,72.20
2018-03-31T01:52:32.322Z,72.20
2018-03-31T01:54:59.313Z,72.10
2018-03-31T01:57:27.096Z,72.30
2018-03-31T01:59:54.138Z,72.30
2018-03-31T02:02:23.398Z,73.00
2018-03-31T02:04:51.337Z,72.90
2018-03-31T02:07:18.479Z,72.90
2018-03-31T02:09:45.466Z,73.00
2018-03-31T02:12:15.172Z,73.00
2018-03-31T02:14:42.212Z,74.10
2018-03-31T02:17:17.629Z,73.60
2018-03-31T02:19:45.387Z,92.00
2018-03-31T02:22:12.442Z,91.90
2018-03-31T02:27:18.817Z,78.20
2018-03-31T02:29:45.773Z,78.70
2018-03-31T02:32:13.090Z,79.60
2018-03-31T02:34:41.895Z,80.50
2018-03-31T02:37:09.690Z,80.90
2018-03-31T02:39:36.693Z,80.70
2018-03-31T02:42:03.764Z,81.80
2018-03-31T02:44:30.754Z,82.30
2018-03-31T02:46:58.507Z,82.70
2018-03-31T02:49:25.499Z,82.70
2018-03-31T02:51:52.495Z,82.70
2018-03-31T02:54:19.484Z,83.20
2018-03-31T02:56:46.525Z,83.50
2018-03-31T02:59:13.506Z,84.40
2018-03-31T03:01:41.299Z,84.10
2018-03-31T03:04:09.041Z,84.20
2018-03-31T03:06:36.026Z,84.20
2018-03-31T03:09:03.803Z,84.80
2018-03-31T03:11:31.606Z,85.20
2018-03-31T03:14:03.774Z,85.20
2018-03-31T03:16:30.821Z,85.10
2018-03-31T03:18:58.585Z,85.40
2018-03-31T03:21:25.825Z,85.00
2018-03-31T03:23:52.877Z,84.40
2018-03-31T03:26:19.925Z,85.10
2018-03-31T03:28:46.923Z,86.10
2018-03-31T03:31:13.940Z,86.00
2018-03-31T03:33:40.955Z,86.00
2018-03-31T03:36:08.710Z,86.40
2018-03-31T03:38:38.168Z,86.50
2018-03-31T03:41:05.177Z,87.40
2018-03-31T03:43:32.175Z,87.50
2018-03-31T03:45:59.919Z,88.10
2018-03-31T03:48:26.904Z,88.00
2018-03-31T03:50:53.912Z,88.30
2018-03-31T03:53:20.916Z,88.50
2018-03-31T03:55:48.709Z,89.10
2018-03-31T03:58:20.081Z,88.60
2018-03-31T04:00:47.090Z,88.60
2018-03-31T04:03:14.097Z,89.00
2018-03-31T04:05:41.209Z,89.00
2018-03-31T04:08:08.209Z,89.80
2018-03-31T04:10:35.264Z,89.00
2018-03-31T04:13:03.023Z,89.00
2018-03-31T04:15:30.025Z,89.10
2018-03-31T04:17:57.057Z,89.40
2018-03-31T04:20:24.094Z,89.50
2018-03-31T04:22:51.092Z,89.80
2018-03-31T04:25:18.888Z,89.60
2018-03-31T04:27:45.876Z,89.60
2018-03-31T04:30:12.895Z,89.40
2018-03-31T04:32:39.916Z,89.40
2018-03-31T04:35:06.953Z,89.40
2018-03-31T04:37:33.973Z,89.20
2018-03-31T04:40:00.987Z,89.00
2018-03-31T04:42:28.037Z,89.00
2018-03-31T04:44:55.030Z,88.60
2018-03-31T04:47:39.918Z,88.10
2018-03-31T04:50:16.677Z,87.60
2018-03-31T04:52:43.820Z,87.70
2018-03-31T04:55:11.571Z,87.80
2018-03-31T04:57:38.629Z,88.30
2018-03-31T05:00:05.614Z,88.50
2018-03-31T05:02:32.630Z,88.40
2018-03-31T05:04:59.624Z,88.50
2018-03-31T05:07:26.662Z,88.50
2018-03-31T05:09:54.981Z,88.50
2018-03-31T05:12:25.605Z,88.30
2018-03-31T05:14:52.646Z,88.60
2018-03-31T05:17:20.393Z,89.10
2018-03-31T05:19:47.413Z,89.10
2018-03-31T05:22:14.418Z,89.10
2018-03-31T05:24:42.866Z,89.40
2018-03-31T05:27:09.878Z,89.30
2018-03-31T05:29:37.629Z,89.80
2018-03-31T05:32:04.612Z,89.80
2018-03-31T05:34:32.463Z,90.20
2018-03-31T05:36:59.460Z,90.10
2018-03-31T05:39:27.436Z,90.00
2018-03-31T05:41:54.436Z,89.70
2018-03-31T05:44:21.464Z,89.90
2018-03-31T05:46:49.397Z,89.80
2018-03-31T05:49:16.378Z,89.90
2018-03-31T05:51:44.171Z,89.80
2018-03-31T05:54:11.464Z,89.80
2018-03-31T05:56:38.424Z,89.80
2018-03-31T05:59:05.568Z,89.80
2018-03-31T06:01:32.573Z,89.80
2018-03-31T06:03:59.668Z,89.90
2018-03-31T06:06:27.531Z,89.80
2018-03-31T06:08:55.400Z,89.20
2018-03-31T06:11:22.359Z,89.10
2018-03-31T06:13:49.368Z,88.90
2018-03-31T06:16:16.520Z,89.00
2018-03-31T06:18:43.539Z,88.90
2018-03-31T06:21:10.628Z,89.00
2018-03-31T06:23:37.582Z,88.30
2018-03-31T06:26:04.578Z,89.00
2018-03-31T06:28:31.577Z,88.60
2018-03-31T06:30:59.326Z,89.10
2018-03-31T06:33:26.464Z,89.10
2018-03-31T06:35:53.472Z,89.00
2018-03-31T06:38:21.232Z,89.00
2018-03-31T06:40:48.246Z,88.80
2018-03-31T06:43:15.245Z,88.70
2018-03-31T06:45:46.545Z,88.70
2018-03-31T06:48:13.594Z,88.70
2018-03-31T06:50:40.624Z,88.50
2018-03-31T06:53:07.621Z,88.80
2018-03-31T06:55:35.364Z,88.60
2018-03-31T06:58:02.346Z,88.50
2018-03-31T07:00:30.108Z,86.80
2018-03-31T07:02:57.862Z,86.60
2018-03-31T07:05:24.850Z,86.40
2018-03-31T07:07:52.620Z,87.80
2018-03-31T07:10:20.383Z,86.70
2018-03-31T07:12:47.387Z,86.50
2018-03-31T07:15:14.345Z,85.60
2018-03-31T07:17:41.337Z,85.80
2018-03-31T07:20:08.587Z,85.00
2018-03-31T07:22:35.568Z,85.30
2018-03-31T07:25:02.552Z,85.20
2018-03-31T07:27:32.423Z,84.00
2018-03-31T07:29:59.366Z,83.90
2018-03-31T07:32:26.376Z,83.80
2018-03-31T07:34:53.344Z,83.60
2018-03-31T07:37:21.097Z,83.50
2018-03-31T07:39:50.068Z,83.50
2018-03-31T07:42:17.076Z,84.00
2018-03-31T07:44:44.111Z,84.00
2018-03-31T07:47:11.141Z,83.50
2018-03-31T07:49:38.125Z,83.00
2018-03-31T07:52:05.131Z,83.40
2018-03-31T07:54:32.158Z,84.10
2018-03-31T07:56:59.171Z,84.50
2018-03-31T07:59:26.164Z,83.60
2018-03-31T08:01:53.166Z,83.90
2018-03-31T08:04:20.903Z,83.20
2018-03-31T08:06:48.872Z,83.10
2018-03-31T08:09:15.854Z,84.30
2018-03-31T08:11:42.983Z,83.30
2018-03-31T08:14:10.025Z,83.40
2018-03-31T08:16:37.015Z,83.20
2018-03-31T08:19:04.974Z,83.30
2018-03-31T08:21:32.001Z,82.70
2018-03-31T08:23:59.004Z,83.00
2018-03-31T08:26:26.024Z,83.30
2018-03-31T08:28:53.032Z,82.80
2018-03-31T08:31:20.050Z,81.80
2018-03-31T08:33:50.287Z,82.70
2018-03-31T08:36:17.304Z,82.60
2018-03-31T08:38:48.517Z,82.60
2018-03-31T08:41:15.516Z,82.60
2018-03-31T08:43:43.300Z,83.70
2018-03-31T08:46:12.345Z,83.70
2018-03-31T08:48:39.345Z,82.10
2018-03-31T08:51:09.303Z,83.40
2018-03-31T08:53:41.050Z,82.10
2018-03-31T08:59:15.146Z,82.60
2018-03-31T09:01:43.288Z,82.20
2018-03-31T09:04:11.249Z,82.50
2018-03-31T09:06:39.432Z,82.40
2018-03-31T09:09:11.073Z,82.00
2018-03-31T09:11:38.875Z,82.00
2018-03-31T09:14:09.582Z,82.20
2018-03-31T09:16:39.337Z,83.10
2018-03-31T09:19:07.743Z,83.10
2018-03-31T09:21:39.790Z,83.00
2018-03-31T09:24:11.931Z,82.10
2018-03-31T09:26:42.332Z,82.50
2018-03-31T09:29:09.384Z,82.50
2018-03-31T09:31:36.468Z,82.10
2018-03-31T09:34:03.458Z,82.20
2018-03-31T09:36:32.351Z,81.20
2018-03-31T09:38:59.848Z,81.20
2018-03-31T09:41:26.862Z,81.70
2018-03-31T09:43:53.971Z,81.50
2018-03-31T09:46:21.057Z,81.80
2018-03-31T09:48:48.891Z,80.60
2018-03-31T09:51:15.914Z,80.60
2018-03-31T09:53:42.948Z,80.60
2018-03-31T09:56:09.977Z,80.50
2018-03-31T10:01:09.314Z,78.40
2018-03-31T10:03:37.121Z,79.00
2018-03-31T10:06:04.169Z,79.10
2018-03-31T10:08:31.454Z,79.10
2018-03-31T10:11:01.801Z,78.90
2018-03-31T10:13:38.829Z,78.00
2018-03-31T10:16:05.936Z,76.50
2018-03-31T10:18:35.145Z,77.10
2018-03-31T10:21:03.366Z,77.30
2018-03-31T10:23:31.245Z,77.00
2018-03-31T10:26:02.068Z,77.20
2018-03-31T10:28:30.661Z,77.20
2018-03-31T10:31:01.435Z,77.00
2018-03-31T10:33:28.485Z,76.10
2018-03-31T10:35:56.770Z,76.20
2018-03-31T10:38:31.791Z,77.10
2018-03-31T10:41:04.672Z,76.60
2018-03-31T10:43:38.401Z,76.40
2018-03-31T10:46:06.641Z,76.30
2018-03-31T10:48:34.227Z,75.20
2018-03-31T10:51:01.414Z,74.00
2018-03-31T10:53:29.333Z,74.50
2018-03-31T10:55:57.407Z,74.40
2018-03-31T10:58:24.491Z,75.10
2018-03-31T11:00:56.385Z,74.80
2018-03-31T11:03:34.795Z,73.90
2018-03-31T11:06:07.226Z,74.00
2018-03-31T11:08:37.388Z,73.60
2018-03-31T11:11:04.410Z,73.60
2018-03-31T11:13:53.916Z,73.90
2018-03-31T11:16:32.885Z,73.20
2018-03-31T11:19:11.396Z,72.50
2018-03-31T11:21:38.457Z,71.60
2018-03-31T11:24:14.814Z,71.70
2018-03-31T11:29:38.663Z,71.00
2018-03-31T11:32:10.146Z,71.00
2018-03-31T11:34:38.654Z,70.10
2018-03-31T11:37:09.462Z,70.40
2018-03-31T11:39:41.221Z,69.90
2018-03-31T11:42:09.316Z,69.20
2018-03-31T11:44:54.744Z,69.10
2018-03-31T11:47:23.051Z,67.00
2018-03-31T11:49:55.206Z,69.30
2018-03-31T11:52:27.367Z,68.40
2018-03-31T11:54:55.329Z,68.40
2018-03-31T11:57:22.500Z,66.20
2018-03-31T11:59:56.686Z,67.60
2018-03-31T12:02:26.426Z,69.70
2018-03-31T12:04:54.316Z,69.80
2018-03-31T12:07:22.116Z,67.30
2018-03-31T12:09:50.497Z,67.30
2018-03-31T12:12:28.952Z,67.20
2018-03-31T12:14:57.121Z,67.10
2018-03-31T12:17:24.210Z,66.10
2018-03-31T12:19:55.014Z,67.00
2018-03-31T12:22:26.544Z,65.10
2018-03-31T12:24:58.590Z,64.10
2018-03-31T12:27:25.649Z,63.70
2018-03-31T12:30:08.909Z,64.10
2018-03-31T12:32:39.183Z,62.00
2018-03-31T12:35:10.245Z,60.60
2018-03-31T12:37:40.050Z,60.30
2018-03-31T12:40:07.987Z,60.00
2018-03-31T12:42:41.934Z,59.90
2018-03-31T12:45:08.987Z,59.20
2018-03-31T12:47:36.031Z,58.70
2018-03-31T12:50:03.172Z,59.10
2018-03-31T12:52:39.593Z,59.60
2018-03-31T12:55:08.015Z,59.60
2018-03-31T12:57:38.984Z,60.00
2018-03-31T13:00:10.100Z,60.30
2018-03-31T13:02:41.595Z,59.70
2018-03-31T13:05:08.764Z,59.60
2018-03-31T13:07:35.833Z,60.60
2018-03-31T13:10:03.019Z,62.60
2018-03-31T13:12:46.323Z,65.40
2018-03-31T13:21:32.206Z,64.50
2018-03-31T13:23:59.259Z,64.50
2018-03-31T13:26:40.028Z,65.10
2018-03-31T13:29:07.903Z,62.10
2018-03-31T13:31:38.515Z,61.50
2018-03-31T13:34:05.652Z,62.00
2018-03-31T13:36:32.774Z,61.70
2018-03-31T13:39:00.700Z,61.30
2018-03-31T13:41:28.901Z,61.30
2018-03-31T13:43:55.907Z,59.90
2018-03-31T13:46:23.769Z,60.20
2018-03-31T13:48:50.815Z,60.10
2018-03-31T13:51:17.843Z,60.80
2018-03-31T13:53:44.856Z,60.10
2018-03-31T13:56:12.075Z,58.10
2018-03-31T13:58:39.141Z,57.50
2018-03-31T14:01:06.199Z,57.30
2018-03-31T14:03:33.225Z,56.00
2018-03-31T14:06:00.411Z,56.60
2018-03-31T14:08:39.006Z,56.80
2018-03-31T14:11:06.203Z,57.00
2018-03-31T14:13:39.261Z,56.30
2018-03-31T14:16:09.347Z,56.30
2018-03-31T14:18:40.183Z,56.20
2018-03-31T14:21:10.266Z,56.40
2018-03-31T14:23:38.682Z,56.30
2018-03-31T14:26:09.492Z,56.80
2018-03-31T14:28:43.570Z,56.70
2018-03-31T14:31:12.152Z,56.30
2018-03-31T14:33:40.408Z,56.20
2018-03-31T14:36:09.338Z,56.00
2018-03-31T14:38:41.957Z,57.40
2018-03-31T14:41:09.231Z,57.70
2018-03-31T14:43:39.037Z,58.20
2018-03-31T14:46:10.885Z,57.10
2018-03-31T14:48:40.129Z,57.20
2018-03-31T14:51:09.278Z,57.40
2018-03-31T14:53:42.085Z,56.90
2018-03-31T14:56:09.237Z,57.40
2018-03-31T14:58:39.106Z,57.30
2018-03-31T15:01:09.837Z,56.60
2018-03-31T15:03:39.205Z,56.60
2018-03-31T15:06:10.253Z,56.10
2018-03-31T15:08:38.888Z,56.10
2018-03-31T15:11:09.629Z,56.20
2018-03-31T15:13:40.254Z,55.40
2018-03-31T15:16:08.789Z,53.30
2018-03-31T15:18:41.268Z,53.00
2018-03-31T15:21:09.154Z,54.40
2018-03-31T15:23:40.027Z,54.40
2018-03-31T15:26:09.681Z,54.80
2018-03-31T15:28:39.717Z,53.50
2018-03-31T15:31:09.724Z,52.40
2018-03-31T15:33:40.324Z,50.00
2018-03-31T15:36:08.867Z,49.80
2018-03-31T15:38:42.416Z,50.10
2018-03-31T15:41:10.540Z,50.10
2018-03-31T15:43:39.275Z,49.20
2018-03-31T15:46:09.301Z,46.90
2018-03-31T15:48:39.971Z,47.50
2018-03-31T15:51:08.854Z,47.20
2018-03-31T15:53:39.339Z,47.50
2018-03-31T15:56:13.475Z,47.10
2018-03-31T15:58:40.637Z,46.80
2018-03-31T16:01:07.850Z,45.70
2018-03-31T16:03:34.985Z,45.60
2018-03-31T16:06:02.209Z,44.00
2018-03-31T16:08:29.345Z,44.00
2018-03-31T16:10:56.515Z,44.70
2018-03-31T16:13:38.676Z,44.80
2018-03-31T16:16:09.428Z,44.50
2018-03-31T16:18:40.244Z,44.90
2018-03-31T16:21:09.101Z,45.90
2018-03-31T16:23:39.058Z,44.20
2018-03-31T16:26:08.625Z,44.10
2018-03-31T16:28:39.036Z,45.00
2018-03-31T16:31:09.758Z,44.30
2018-03-31T16:33:40.429Z,45.70
2018-03-31T16:36:09.193Z,45.70
2018-03-31T16:38:42.955Z,46.00
2018-03-31T16:41:10.090Z,45.80
2018-03-31T16:43:39.890Z,46.20
2018-03-31T16:46:09.897Z,44.40
2018-03-31T16:48:45.426Z,44.10
2018-03-31T16:51:13.282Z,44.20
2018-03-31T16:53:45.283Z,44.00
2018-03-31T16:56:12.358Z,44.90
2018-03-31T16:58:42.839Z,44.90
2018-03-31T17:01:10.621Z,43.80
2018-03-31T17:03:39.530Z,43.70
2018-03-31T17:06:09.356Z,43.50
2018-03-31T17:08:38.920Z,44.00
2018-03-31T17:11:05.972Z,44.60
2018-03-31T17:13:40.248Z,44.00
2018-03-31T17:16:10.623Z,44.20
2018-03-31T17:18:39.693Z,44.90
2018-03-31T17:21:10.278Z,44.60
2018-03-31T17:23:38.859Z,46.50
2018-03-31T17:26:10.890Z,45.90
2018-03-31T17:28:49.949Z,44.50
2018-03-31T17:31:17.010Z,45.50
2018-03-31T17:33:44.003Z,45.40
2018-03-31T17:36:11.081Z,45.80
2018-03-31T17:38:38.965Z,46.60
2018-03-31T17:41:09.516Z,47.50
2018-03-31T17:43:41.469Z,46.70
2018-03-31T17:46:10.349Z,45.90
2018-03-31T17:48:39.260Z,45.90
2018-03-31T17:51:10.288Z,49.80
2018-03-31T17:53:38.968Z,49.80
2018-03-31T17:56:10.042Z,50.20
2018-03-31T18:09:40.600Z,52.10
2018-03-31T18:12:07.677Z,52.10
2018-03-31T18:14:38.321Z,52.20
2018-03-31T18:17:09.809Z,53.40
2018-03-31T18:19:39.385Z,53.40
2018-03-31T18:22:09.432Z,53.40
2018-03-31T18:24:36.562Z,54.00
2018-03-31T18:27:04.386Z,55.40
2018-03-31T18:29:31.462Z,55.40
2018-03-31T18:31:58.486Z,55.70
2018-03-31T18:34:25.551Z,55.70
2018-03-31T18:36:52.634Z,56.10
2018-03-31T18:39:19.666Z,56.40
2018-03-31T18:41:46.752Z,57.50
2018-03-31T18:44:13.799Z,57.10
2018-03-31T18:46:40.800Z,56.90
2018-03-31T18:49:07.938Z,57.00
2018-03-31T18:51:35.002Z,57.70
2018-03-31T18:54:02.160Z,58.20
2018-03-31T18:56:39.341Z,58.40
2018-03-31T18:59:07.954Z,58.60
2018-03-31T19:01:36.036Z,57.80
2018-03-31T19:04:03.158Z,57.80
2018-03-31T19:06:30.230Z,57.60
2018-03-31T19:09:11.431Z,58.90
2018-03-31T19:11:39.109Z,58.90
2018-03-31T19:14:06.224Z,59.00
2018-03-31T19:16:38.947Z,59.40
2018-03-31T19:19:10.224Z,59.40
2018-03-31T19:21:40.713Z,59.30
2018-03-31T19:24:07.995Z,59.20
2018-03-31T19:26:37.143Z,59.20
2018-03-31T19:29:04.146Z,59.10
2018-03-31T19:31:32.014Z,59.60
2018-03-31T19:33:59.094Z,60.20
2018-03-31T19:36:26.301Z,60.20
2018-03-31T19:38:53.363Z,61.00
2018-03-31T19:41:20.498Z,60.80
2018-03-31T19:44:08.933Z,61.40
2018-03-31T19:46:36.721Z,61.80
2018-03-31T19:49:09.602Z,61.60
2018-03-31T19:51:38.785Z,62.00
2018-03-31T19:54:05.844Z,62.00
2018-03-31T19:56:32.876Z,62.30
2018-03-31T19:59:09.245Z,63.50
2018-03-31T20:01:43.090Z,63.60
2018-03-31T20:04:10.118Z,64.00
2018-03-31T20:06:37.142Z,64.50
2018-03-31T20:09:08.647Z,64.70
2018-03-31T20:11:35.766Z,64.60
2018-03-31T20:14:04.505Z,65.10
2018-03-31T20:16:32.392Z,65.50
2018-03-31T20:18:59.499Z,65.50
2018-03-31T20:21:27.308Z,65.30
2018-03-31T20:23:54.351Z,65.30
2018-03-31T20:26:21.377Z,65.50
2018-03-31T20:29:09.090Z,65.80
2018-03-31T20:31:39.798Z,65.90
2018-03-31T20:34:08.652Z,65.80
2018-03-31T20:36:35.838Z,66.00
2018-03-31T20:39:02.978Z,66.30
2018-03-31T20:41:30.092Z,66.50
2018-03-31T20:43:59.054Z,66.70
2018-03-31T20:46:26.062Z,66.70
2018-03-31T20:48:53.070Z,66.80
2018-03-31T20:51:20.229Z,67.00
2018-03-31T20:53:47.257Z,67.30
2018-03-31T20:56:14.282Z,67.90
2018-03-31T20:58:42.363Z,67.80
2018-03-31T21:01:10.217Z,67.60
2018-03-31T21:03:37.326Z,67.60
2018-03-31T21:06:11.027Z,68.50
2018-03-31T21:08:39.051Z,68.20
2018-03-31T21:11:06.150Z,68.30
2018-03-31T21:13:41.182Z,67.70
2018-03-31T21:16:12.360Z,67.60
2018-03-31T21:18:40.418Z,68.00
2018-03-31T21:21:08.973Z,68.50
2018-03-31T21:23:39.283Z,68.70
2018-03-31T21:29:03.939Z,68.80
2018-03-31T21:31:38.838Z,69.10
2018-03-31T21:34:05.876Z,69.40
2018-03-31T21:36:38.948Z,69.30
2018-03-31T21:39:05.977Z,68.90
2018-03-31T21:41:33.046Z,69.00
2018-03-31T21:44:00.046Z,70.10
2018-03-31T21:46:40.883Z,70.30
2018-03-31T21:52:13.604Z,69.40
2018-03-31T21:54:41.337Z,68.80
2018-03-31T21:57:09.109Z,69.10
2018-03-31T21:59:36.108Z,69.10
2018-03-31T22:02:03.179Z,69.80
2018-03-31T22:04:30.993Z,70.60
2018-03-31T22:06:57.999Z,70.50
2018-03-31T22:09:34.500Z,70.40
2018-03-31T22:12:02.329Z,69.60
2018-03-31T22:14:35.035Z,69.50
2018-03-31T22:17:09.808Z,69.20
2018-03-31T22:22:42.597Z,70.00
2018-03-31T22:25:09.748Z,70.50
2018-03-31T22:30:47.174Z,71.10
2018-03-31T22:33:14.296Z,71.50
2018-03-31T22:35:47.386Z,70.70
2018-03-31T22:38:15.249Z,71.80
2018-03-31T22:46:10.461Z,72.10
2018-03-31T22:51:41.400Z,71.80
2018-03-31T22:54:08.409Z,71.30
2018-03-31T22:56:35.453Z,71.20
2018-03-31T22:59:24.729Z,71.80
2018-03-31T23:01:59.129Z,71.90
2018-03-31T23:04:26.199Z,71.90
2018-03-31T23:06:55.525Z,71.50
2018-03-31T23:12:04.035Z,71.70
2018-03-31T23:14:31.124Z,72.10
2018-03-31T23:19:35.864Z,72.20
2018-03-31T23:22:07.376Z,72.50
2018-03-31T23:27:28.586Z,72.30
2018-03-31T23:29:55.609Z,72.30
2018-03-31T23:32:22.604Z,72.80
2018-03-31T23:40:56.903Z,73.10
2018-03-31T23:43:23.979Z,73.30
2018-03-31T23:46:13.973Z,73.50
2018-03-31T23:48:41.196Z,73.40
2018-03-31T23:51:08.265Z,73.70
2018-03-31T23:56:39.429Z,73.20
2018-03-31T23:59:09.895Z,73.30
